Accueil
METAR-TAF:

METAR-TAF

Aéroports :

Figari, France

Aéroport de Figari Sud Corse

latitude: 41-30N, longitude: 009-06E, altitude: 26 m

Observation

Le bulletin a été fait il y a 21 minutes, à 10:30 UTC
Vent 14 kt de sud-ouest
Température 28°C
Humidité 45%
Pression 1008 hPa
Visibilité 10 km ou plus
Quelques nuages à une hauteur de 8000 ft
Nuages épars à une hauteur de 12000 ft
Nuages fragmentés à une hauteur de 14000 ft

METAR: LFKF 291030Z AUTO 23014KT 9999 FEW080 SCT120 BKN140 28/15 Q1008 NOSIG

Heure: 12:51 (10:51 UTC)

Prévision

Le bulletin a été fait il y a 2 heures et 51 minutes, à 08:00 UTC
Prévision valable du 29 à 09 UTC au 30 à 09 UTC
Vent 10 kt de ouest avec des rafales jusqu'à 20 kt
Visibilité 10 km ou plus
Quelques nuages à une hauteur de 3000 ft
Evoluant progressivement
du 29 à 18 UTC au 29 à 20 UTC
Vent 10 kt de ouest/sud-ouest

TAF: LFKF 290800Z 2909/3009 26010G20KT 9999 FEW030 BECMG 2918/2920 24010KT

Observations et prévisions météorologiques de plus de 4000 aéroports (messages METAR et TAF).

Les stations disponibles sont représentées par des disques jaunes et rouges sur la carte.

Passer la souris dessus pour voir le nom de la station.

Cliquer dessus pour voir les observations et prévisions météorologiques.

Pour changer de carte: cliquez sur les boutons verts avec une croix noire pour zoomer, sur le bouton vert avec un tiret pour effectuer un zoom arrière, ou sur les flèches vertes pour les cartes adjacentes.


METAR-TAF: